Time;durP1;ratioP1;P1;durP2;ratioP2;P2;SDS_P1;SDS_P2;PMS_P1;PMS_P2;Temp;Humidity;BMP_temperature;BMP_pressure;BME280_temperature;BME280_humidity;BME280_pressure;Samples;Min_cycle;Max_cycle;Signal;HPM_P1;HPM_P2
2021/11/10 00:00:23;;;;;;;1.93;1.70;;;;;;;5.46;65.13;98778.06;6269215;28;20202;-71
2021/11/10 00:03:25;;;;;;;3.13;2.17;;;;;;;5.36;64.94;98782.00;6269988;28;20203;-72
2021/11/10 00:06:27;;;;;;;3.27;1.80;;;;;;;5.35;65.35;98785.53;6270434;28;20208;-73
2021/11/10 00:09:29;;;;;;;3.80;1.97;;;;;;;5.23;66.22;98786.88;6269475;28;20566;-72
2021/11/10 00:12:31;;;;;;;4.13;1.93;;;;;;;5.15;66.61;98789.81;6268958;28;20602;-71
2021/11/10 00:15:34;;;;;;;2.57;2.20;;;;;;;5.16;66.34;98778.44;6268839;28;20671;-74
2021/11/10 00:18:36;;;;;;;5.47;1.93;;;;;;;5.20;65.77;98787.84;6270520;28;20227;-71
2021/11/10 00:21:38;;;;;;;2.83;1.80;;;;;;;5.29;66.47;98793.63;6269700;28;20201;-71
2021/11/10 00:24:40;;;;;;;3.30;2.50;;;;;;;5.42;65.23;98787.81;6261469;28;20217;-72
2021/11/10 00:27:42;;;;;;;2.97;2.20;;;;;;;5.39;65.51;98784.50;6265784;28;20214;-71
2021/11/10 00:30:45;;;;;;;4.57;2.10;;;;;;;5.33;65.84;98785.56;6260969;28;20209;-72
2021/11/10 00:33:48;;;;;;;3.00;1.90;;;;;;;5.27;66.72;98780.59;6260823;28;20183;-72
2021/11/10 00:36:51;;;;;;;2.97;1.97;;;;;;;5.34;66.02;98776.81;6269243;28;20238;-72
2021/11/10 00:39:53;;;;;;;2.50;2.00;;;;;;;5.28;66.89;98781.47;6270109;28;20202;-72
2021/11/10 00:42:55;;;;;;;3.57;2.10;;;;;;;5.24;67.35;98782.50;6269313;28;20207;-73
2021/11/10 00:46:01;;;;;;;5.07;2.33;;;;;;;5.15;67.07;98768.88;6269231;28;20223;-72
2021/11/10 00:49:04;;;;;;;3.20;2.50;;;;;;;5.16;67.84;98767.13;6252056;28;20211;-72
2021/11/10 00:52:06;;;;;;;3.20;2.10;;;;;;;5.13;67.49;98785.53;6267977;28;20603;-76
2021/11/10 00:55:09;;;;;;;4.50;2.13;;;;;;;5.13;67.72;98778.56;6269525;28;20675;-71
2021/11/10 00:58:12;;;;;;;3.57;1.90;;;;;;;5.05;67.97;98774.53;6269175;28;20187;-73
2021/11/10 01:01:17;;;;;;;3.40;2.60;;;;;;;4.99;68.81;98769.56;6269709;28;20277;-72
2021/11/10 01:04:20;;;;;;;3.40;2.23;;;;;;;4.98;69.25;98768.72;6267925;28;20586;-70
2021/11/10 01:07:22;;;;;;;2.83;2.20;;;;;;;4.96;68.45;98773.16;6269853;28;20296;-73
2021/11/10 01:10:27;;;;;;;2.93;1.90;;;;;;;4.90;69.33;98772.53;6269048;28;20239;-71
2021/11/10 01:13:29;;;;;;;2.83;2.10;;;;;;;4.82;69.10;98758.00;6268547;28;20738;-71
2021/11/10 01:16:34;;;;;;;4.20;2.57;;;;;;;4.91;68.77;98759.41;6267737;28;20207;-70
2021/11/10 01:19:37;;;;;;;3.50;2.63;;;;;;;5.01;69.13;98755.50;6259541;28;20200;-74
2021/11/10 01:22:41;;;;;;;4.17;2.70;;;;;;;5.05;69.08;98766.69;6255008;28;20204;-70
2021/11/10 01:25:44;;;;;;;2.47;2.10;;;;;;;5.02;69.10;98769.44;6276459;28;20211;-70
2021/11/10 01:28:46;;;;;;;2.77;2.23;;;;;;;4.91;69.40;98762.00;6267002;28;20231;-70
2021/11/10 01:31:49;;;;;;;3.80;2.50;;;;;;;4.88;70.45;98754.31;6267033;28;20248;-71
2021/11/10 01:34:51;;;;;;;6.80;2.80;;;;;;;4.79;70.19;98773.00;6266973;28;20187;-70
2021/11/10 01:37:53;;;;;;;3.07;2.10;;;;;;;4.71;71.03;98772.41;6267423;28;20219;-70
2021/11/10 01:40:58;;;;;;;4.23;2.87;;;;;;;4.63;71.45;98764.03;6268777;28;20191;-70
2021/11/10 01:44:04;;;;;;;3.30;2.70;;;;;;;4.70;70.31;98776.78;6268429;28;20172;-74
2021/11/10 01:47:09;;;;;;;4.97;2.80;;;;;;;4.81;70.35;98764.16;6267245;28;20608;-72
2021/11/10 01:50:17;;;;;;;3.67;2.30;;;;;;;4.87;69.65;98759.59;6259592;28;20703;-72
2021/11/10 01:53:20;;;;;;;4.40;2.83;;;;;;;4.89;69.96;98755.16;6252022;28;20196;-72
2021/11/10 01:56:22;;;;;;;3.93;2.70;;;;;;;4.88;70.06;98754.31;6258219;28;20305;-71
2021/11/10 01:59:36;;;;;;;5.83;2.37;;;;;;;4.72;70.46;98759.28;6268427;28;20725;-72
2021/11/10 02:02:43;;;;;;;3.30;1.90;;;;;;;4.61;70.88;98768.44;6267534;28;20431;-72
2021/11/10 02:05:47;;;;;;;2.83;2.03;;;;;;;4.50;72.13;98771.47;6266644;28;20207;-72
2021/11/10 02:09:07;;;;;;;3.50;2.40;;;;;;;4.75;71.10;98769.63;6268147;28;20196;-73
2021/11/10 02:12:11;;;;;;;5.20;2.70;;;;;;;4.71;71.45;98778.50;6267076;28;20227;-74
2021/11/10 02:15:20;;;;;;;5.07;2.90;;;;;;;4.81;70.96;98771.13;6270054;28;20655;-71
2021/11/10 02:18:23;;;;;;;4.17;2.77;;;;;;;4.91;70.01;98772.47;6277478;28;20703;-72
2021/11/10 02:21:32;;;;;;;3.97;2.00;;;;;;;4.71;70.66;98772.41;6266698;28;20725;-72
2021/11/10 02:24:37;;;;;;;3.47;2.20;;;;;;;4.52;71.65;98766.19;6269030;28;20686;-73
2021/11/10 02:27:40;;;;;;;3.00;2.37;;;;;;;4.30;72.34;98767.00;6266753;28;20423;-72
2021/11/10 02:30:42;;;;;;;4.17;2.53;;;;;;;4.12;73.82;98751.19;6259307;28;20737;-72
2021/11/10 02:33:45;;;;;;;2.97;2.60;;;;;;;4.17;73.05;98767.53;6253810;28;20199;-73
2021/11/10 02:36:47;;;;;;;5.33;3.13;;;;;;;4.20;73.43;98770.88;6270798;28;20219;-75
2021/11/10 02:39:51;;;;;;;7.50;2.60;;;;;;;4.21;72.93;98758.66;6267074;28;20286;-73
2021/11/10 02:42:54;;;;;;;5.40;3.30;;;;;;;4.19;73.43;98756.13;6266878;28;20210;-72
2021/11/10 02:45:56;;;;;;;7.20;3.53;;;;;;;4.25;73.80;98753.28;6261352;28;20222;-73
2021/11/10 02:48:58;;;;;;;3.53;2.80;;;;;;;4.24;73.07;98761.16;6272171;28;20199;-73
2021/11/10 02:52:05;;;;;;;4.50;3.20;;;;;;;4.19;74.47;98753.53;6272981;28;20192;-73
2021/11/10 02:55:08;;;;;;;3.97;3.30;;;;;;;4.39;73.91;98750.97;6271602;28;20198;-73
2021/11/10 02:58:10;;;;;;;6.20;3.00;;;;;;;4.29;73.66;98765.31;6271966;28;20205;-72
2021/11/10 03:01:13;;;;;;;5.03;3.83;;;;;;;4.28;73.89;98757.56;6273304;28;20685;-72
2021/11/10 03:04:28;;;;;;;6.47;3.53;;;;;;;4.33;74.22;98763.44;6270761;28;20249;-72
2021/11/10 03:07:32;;;;;;;4.43;2.80;;;;;;;4.24;74.46;98779.47;6271224;28;20348;-73
2021/11/10 03:10:37;;;;;;;3.93;3.07;;;;;;;4.08;74.10;98764.38;6270099;28;20243;-73
2021/11/10 03:13:40;;;;;;;5.60;2.90;;;;;;;3.92;74.78;98783.25;6304190;28;20191;-72
2021/11/10 03:16:45;;;;;;;4.27;2.90;;;;;;;3.79;75.56;98779.38;6271858;28;20370;-72
2021/11/10 03:19:48;;;;;;;3.60;2.73;;;;;;;3.69;75.58;98784.91;6262128;28;20207;-72
2021/11/10 03:22:53;;;;;;;4.47;3.00;;;;;;;3.65;75.83;98767.66;6264631;28;20201;-72
2021/11/10 03:26:00;;;;;;;6.20;3.63;;;;;;;3.75;76.54;98769.94;6254744;28;20304;-73
2021/11/10 03:29:04;;;;;;;4.93;3.33;;;;;;;3.75;76.00;98773.41;6271508;28;20684;-72
2021/11/10 03:32:11;;;;;;;5.97;3.90;;;;;;;3.86;76.21;98770.41;6271659;28;20190;-72
2021/11/10 03:35:14;;;;;;;8.47;4.30;;;;;;;4.03;75.29;98766.28;6269598;28;20201;-72
2021/11/10 03:38:17;;;;;;;9.57;3.87;;;;;;;4.08;75.40;98769.59;6271906;28;20462;-72
2021/11/10 03:41:25;;;;;;;7.07;4.30;;;;;;;4.16;75.18;98769.31;6269920;28;20209;-71
2021/11/10 03:44:28;;;;;;;8.13;3.87;;;;;;;4.16;74.58;98774.53;6253880;28;20199;-72
2021/11/10 03:47:33;;;;;;;5.80;4.20;;;;;;;4.13;75.63;98764.19;6261528;28;20219;-72
2021/11/10 03:50:36;;;;;;;6.93;4.43;;;;;;;4.27;75.00;98759.31;6265828;28;20221;-71
2021/11/10 03:53:38;;;;;;;8.30;4.07;;;;;;;4.40;74.14;98755.28;6269944;28;20207;-72
2021/11/10 03:56:40;;;;;;;6.30;3.67;;;;;;;4.28;74.36;98763.63;6269390;28;20195;-72
2021/11/10 03:59:43;;;;;;;5.90;3.40;;;;;;;4.17;75.02;98752.72;6270012;28;20203;-72
2021/11/10 04:02:46;;;;;;;5.50;4.10;;;;;;;4.23;75.23;98759.47;6269231;28;20199;-73
2021/11/10 04:06:02;;;;;;;5.73;3.80;;;;;;;4.18;75.72;98761.41;6269717;28;20574;-73
2021/11/10 04:09:06;;;;;;;6.73;3.67;;;;;;;4.21;75.65;98762.13;6269412;28;20192;-72
2021/11/10 04:12:09;;;;;;;5.53;4.33;;;;;;;4.21;75.35;98762.13;6268916;28;20328;-72
2021/11/10 04:15:15;;;;;;;7.50;4.57;;;;;;;4.21;75.32;98756.91;6269248;28;20584;-73
2021/11/10 04:18:18;;;;;;;6.20;4.37;;;;;;;4.15;76.14;98759.75;6260899;28;20219;-73
2021/11/10 04:21:24;;;;;;;13.27;4.77;;;;;;;4.22;76.41;98752.53;6255089;28;20200;-71
2021/11/10 04:24:29;;;;;;;8.37;5.00;;;;;;;4.33;75.94;98745.16;6260566;28;20280;-72
2021/11/10 04:27:31;;;;;;;8.23;5.30;;;;;;;4.32;76.05;98752.13;6256294;28;20599;-72
2021/11/10 04:30:34;;;;;;;9.47;6.00;;;;;;;4.25;75.67;98749.81;6261130;28;20223;-73
2021/11/10 04:33:38;;;;;;;8.97;5.30;;;;;;;4.31;75.75;98746.97;6255528;28;20261;-73
2021/11/10 04:36:41;;;;;;;10.27;5.13;;;;;;;4.36;75.32;98755.50;6270602;28;20277;-74
2021/11/10 04:39:43;;;;;;;10.80;4.80;;;;;;;4.30;76.07;98743.50;6269954;28;20590;-72
2021/11/10 04:42:47;;;;;;;8.27;6.23;;;;;;;4.38;75.76;98743.22;6268335;28;20224;-73
2021/11/10 04:49:16;;;;;;;8.67;5.47;;;;;;;4.44;75.98;98746.44;6269399;28;20292;-72
2021/11/10 04:52:19;;;;;;;7.10;4.97;;;;;;;4.39;76.41;98760.59;6268663;28;20640;-72
2021/11/10 04:55:21;;;;;;;8.83;5.80;;;;;;;4.41;75.40;98749.16;6269187;28;20221;-73
2021/11/10 04:58:23;;;;;;;7.70;5.13;;;;;;;4.33;75.76;98756.44;6268313;28;20264;-71
2021/11/10 05:01:25;;;;;;;8.20;5.37;;;;;;;4.25;76.29;98753.28;6269356;28;20200;-72
2021/11/10 05:04:36;;;;;;;6.37;5.00;;;;;;;4.14;75.89;98758.06;6268021;28;20219;-72
2021/11/10 05:07:39;;;;;;;9.70;4.97;;;;;;;4.00;76.65;98762.91;6268633;28;20574;-73
2021/11/10 05:10:43;;;;;;;6.87;5.63;;;;;;;3.93;77.30;98764.06;6267484;28;20238;-73
2021/11/10 05:13:46;;;;;;;8.53;5.17;;;;;;;3.86;77.54;98766.06;6269425;28;20214;-73
2021/11/10 05:16:49;;;;;;;8.30;6.33;;;;;;;3.95;77.41;98752.66;6267410;28;20206;-71
2021/11/10 05:19:51;;;;;;;7.80;5.40;;;;;;;4.08;77.29;98742.63;6259790;28;20211;-72
2021/11/10 05:23:12;;;;;;;8.67;5.80;;;;;;;4.03;77.16;98755.84;6251501;28;20246;-72
2021/11/10 05:26:15;;;;;;;11.20;5.70;;;;;;;4.02;77.27;98759.34;6257113;28;20207;-72
2021/11/10 05:29:17;;;;;;;7.50;5.23;;;;;;;3.99;77.35;98754.22;6268878;28;20488;-72
2021/11/10 05:32:19;;;;;;;8.17;5.27;;;;;;;4.03;77.86;98748.00;6267312;28;20217;-72
2021/11/10 05:35:21;;;;;;;7.77;5.17;;;;;;;4.11;76.99;98749.47;6267411;28;20200;-72
2021/11/10 05:38:23;;;;;;;7.93;5.70;;;;;;;4.09;77.83;98744.31;6267079;28;20313;-72
2021/11/10 05:41:25;;;;;;;9.80;6.30;;;;;;;4.25;76.70;98749.81;6268804;28;20197;-72
2021/11/10 05:44:27;;;;;;;7.00;5.50;;;;;;;4.22;76.16;98753.38;6260160;28;20210;-74
2021/11/10 05:47:29;;;;;;;9.80;6.23;;;;;;;4.35;76.26;98751.16;6268131;28;20214;-72
2021/11/10 05:50:31;;;;;;;6.60;5.20;;;;;;;4.39;75.81;98765.84;6267352;28;20218;-72
2021/11/10 05:53:34;;;;;;;7.17;5.17;;;;;;;4.35;76.06;98759.00;6268044;28;20202;-72
2021/11/10 05:56:39;;;;;;;8.73;5.53;;;;;;;4.38;76.06;98758.91;6268536;28;20189;-72
2021/11/10 05:59:42;;;;;;;6.67;5.53;;;;;;;4.34;75.71;98757.31;6268672;28;20203;-71
2021/11/10 06:02:44;;;;;;;7.27;5.57;;;;;;;4.35;76.73;98762.47;6267870;28;20206;-76
2021/11/10 06:05:50;;;;;;;7.83;5.60;;;;;;;4.45;75.55;98760.38;6268597;28;20216;-72
2021/11/10 06:08:52;;;;;;;6.20;4.70;;;;;;;4.51;75.47;98762.72;6268085;28;20206;-73
2021/11/10 06:11:54;;;;;;;6.10;4.40;;;;;;;4.44;75.77;98761.28;6267978;28;20231;-73
2021/11/10 06:14:56;;;;;;;7.67;5.50;;;;;;;4.50;75.80;98760.16;6266852;28;20207;-73
2021/11/10 06:17:59;;;;;;;9.93;5.73;;;;;;;4.73;74.75;98763.59;6268882;28;20272;-71
2021/11/10 06:21:03;;;;;;;8.93;6.20;;;;;;;4.82;74.42;98770.22;6272620;28;20194;-74
2021/11/10 06:24:05;;;;;;;9.63;6.57;;;;;;;4.83;74.30;98769.31;6271495;28;20221;-71
2021/11/10 06:27:07;;;;;;;7.67;5.47;;;;;;;4.95;74.19;98776.69;6271278;28;20706;-72
2021/11/10 06:30:10;;;;;;;10.27;5.63;;;;;;;5.11;73.60;98767.28;6273119;28;20201;-73
2021/11/10 06:33:12;;;;;;;9.27;6.20;;;;;;;5.08;73.01;98770.06;6272666;28;20188;-74
2021/11/10 06:36:14;;;;;;;6.57;5.43;;;;;;;4.97;73.95;98771.41;6272572;28;20195;-74
2021/11/10 06:39:17;;;;;;;8.77;5.83;;;;;;;4.95;73.85;98774.06;6271241;28;20223;-77
2021/11/10 06:42:20;;;;;;;6.63;5.20;;;;;;;4.98;74.45;98773.09;6271813;28;20222;-73
2021/11/10 06:45:22;;;;;;;8.43;5.30;;;;;;;4.94;74.04;98774.13;6272246;28;20257;-73
2021/11/10 06:48:24;;;;;;;7.17;5.30;;;;;;;5.06;74.01;98778.88;6272328;28;20578;-73
2021/11/10 06:51:27;;;;;;;6.77;5.40;;;;;;;5.16;73.66;98775.81;6272698;28;20339;-73
2021/11/10 06:54:31;;;;;;;7.33;4.50;;;;;;;5.07;74.18;98791.03;6270271;28;20193;-72
2021/11/10 06:57:34;;;;;;;7.03;5.17;;;;;;;5.06;73.77;98787.56;6271082;28;20278;-74
2021/11/10 07:00:36;;;;;;;7.33;4.93;;;;;;;5.03;74.78;98790.28;6270614;28;20199;-72
2021/11/10 07:03:38;;;;;;;7.80;5.40;;;;;;;4.93;75.06;98785.50;6271543;28;20203;-72
2021/11/10 07:06:40;;;;;;;7.20;5.17;;;;;;;4.91;75.23;98776.84;6271785;28;20311;-73
2021/11/10 07:09:43;;;;;;;9.70;5.37;;;;;;;4.88;75.23;98784.84;6271395;28;20566;-72
2021/11/10 07:12:45;;;;;;;6.97;5.07;;;;;;;4.88;75.29;98796.16;6270008;28;20310;-73
2021/11/10 07:15:47;;;;;;;8.87;5.67;;;;;;;4.85;75.33;98785.81;6269667;28;20326;-73
2021/11/10 07:18:49;;;;;;;8.27;5.93;;;;;;;5.05;74.22;98774.53;6270835;28;20191;-72
2021/11/10 07:21:51;;;;;;;10.30;5.80;;;;;;;5.10;74.25;98786.50;6270397;28;20191;-71
2021/11/10 07:24:53;;;;;;;8.30;5.17;;;;;;;5.16;74.74;98781.06;6270103;28;20527;-72
2021/11/10 07:27:57;;;;;;;7.00;5.00;;;;;;;5.18;74.93;98781.84;6269837;28;20608;-74
2021/11/10 07:30:59;;;;;;;9.20;5.73;;;;;;;5.41;73.80;98774.78;6259838;28;20192;-74
2021/11/10 07:34:02;;;;;;;10.20;6.23;;;;;;;5.53;73.30;98779.50;6262621;28;20490;-73
2021/11/10 07:37:05;;;;;;;6.87;5.53;;;;;;;5.65;72.83;98772.91;6270413;28;20223;-73
2021/11/10 07:40:08;;;;;;;8.93;5.87;;;;;;;5.71;72.79;98773.47;6269748;28;20286;-73
2021/11/10 07:43:11;;;;;;;7.07;4.73;;;;;;;5.73;72.47;98769.03;6252344;28;20242;-73
2021/11/10 07:46:14;;;;;;;10.30;5.83;;;;;;;5.82;72.97;98775.63;6268058;28;20204;-72
2021/11/10 07:49:23;;;;;;;8.57;6.03;;;;;;;5.97;71.21;98772.38;6269482;28;20202;-74
2021/11/10 07:52:25;;;;;;;7.20;5.47;;;;;;;6.09;71.30;98776.25;6268750;28;20519;-77
2021/11/10 07:55:28;;;;;;;8.03;5.97;;;;;;;6.20;70.55;98771.34;6268829;28;20207;-73
2021/11/10 07:58:30;;;;;;;9.00;6.37;;;;;;;6.30;70.48;98767.38;6269316;28;20193;-74
2021/11/10 08:01:32;;;;;;;6.57;5.40;;;;;;;6.38;70.05;98760.03;6269225;28;20191;-73
2021/11/10 08:04:35;;;;;;;7.53;5.07;;;;;;;6.44;70.55;98753.66;6267885;28;20192;-74
2021/11/10 08:07:38;;;;;;;7.50;5.07;;;;;;;6.46;70.24;98763.16;6268842;28;20582;-72
2021/11/10 08:10:40;;;;;;;8.63;6.07;;;;;;;6.65;68.00;98761.38;6223101;28;1282992;-71
2021/11/10 08:13:42;;;;;;;7.47;5.10;;;;;;;6.83;68.27;98759.63;6270275;28;20195;-71
2021/11/10 08:16:44;;;;;;;7.07;4.77;;;;;;;6.96;67.90;98759.91;6270168;28;20560;-74
2021/11/10 08:19:46;;;;;;;8.77;5.53;;;;;;;7.08;67.61;98750.59;6270322;28;20282;-73
2021/11/10 08:22:49;;;;;;;7.10;4.77;;;;;;;7.24;67.39;98762.88;6268256;28;20270;-73
2021/11/10 08:25:52;;;;;;;8.17;4.97;;;;;;;7.43;65.88;98754.06;6270292;28;20605;-73
2021/11/10 08:28:54;;;;;;;6.83;4.60;;;;;;;7.67;64.61;98751.06;6268274;28;20196;-72
2021/11/10 08:31:57;;;;;;;8.97;4.63;;;;;;;7.82;64.62;98748.56;6270294;28;20192;-73
2021/11/10 08:35:01;;;;;;;6.63;4.27;;;;;;;8.04;64.29;98754.38;6269600;28;20570;-72
2021/11/10 08:38:03;;;;;;;4.80;3.67;;;;;;;8.27;63.00;98750.53;6269669;28;20208;-71
2021/11/10 08:41:06;;;;;;;6.33;4.13;;;;;;;8.34;61.54;98741.41;6267527;28;20206;-72
2021/11/10 08:44:08;;;;;;;5.20;3.47;;;;;;;8.46;62.48;98748.66;6269408;28;20222;-72
2021/11/10 08:47:10;;;;;;;5.70;3.40;;;;;;;8.50;61.13;98740.47;6269396;28;20689;-72
2021/11/10 08:50:15;;;;;;;7.40;4.20;;;;;;;8.69;61.82;98737.69;6269274;28;20203;-74
2021/11/10 08:53:19;;;;;;;5.10;3.83;;;;;;;8.92;60.56;98731.13;6267903;28;20199;-74
2021/11/10 08:56:21;;;;;;;5.23;3.47;;;;;;;9.15;59.39;98740.34;6269273;28;20600;-72
2021/11/10 08:59:24;;;;;;;7.17;3.63;;;;;;;9.24;58.50;98731.94;6268728;28;20199;-71
2021/11/10 09:02:26;;;;;;;5.60;3.57;;;;;;;9.47;58.18;98725.31;6269192;28;20643;-72
2021/11/10 09:05:29;;;;;;;4.63;3.30;;;;;;;9.73;57.59;98724.59;6267611;28;20674;-70
2021/11/10 09:08:32;;;;;;;6.07;3.80;;;;;;;9.82;56.49;98731.94;6269003;28;20685;-71
2021/11/10 09:11:34;;;;;;;6.17;3.33;;;;;;;9.89;57.06;98733.25;6268850;28;20231;-71
2021/11/10 09:14:36;;;;;;;4.83;3.43;;;;;;;10.19;56.63;98727.09;6268184;28;20210;-72
2021/11/10 09:17:40;;;;;;;6.03;3.40;;;;;;;10.37;56.24;98733.03;6259663;28;20301;-72
2021/11/10 09:20:44;;;;;;;6.43;3.20;;;;;;;10.61;55.52;98734.09;6258745;28;20201;-71
2021/11/10 09:23:46;;;;;;;6.10;3.33;;;;;;;10.66;54.88;98742.59;6268841;28;20202;-71
2021/11/10 09:26:49;;;;;;;7.00;3.53;;;;;;;10.53;55.12;98739.03;6268517;28;20733;-71
2021/11/10 09:29:52;;;;;;;4.80;3.73;;;;;;;10.72;54.67;98734.28;6268083;28;20215;-71
2021/11/10 09:32:57;;;;;;;5.60;3.47;;;;;;;10.85;54.87;98734.34;6300702;28;20601;-71
2021/11/10 09:36:01;;;;;;;6.33;3.53;;;;;;;10.96;54.79;98731.84;6268258;28;20191;-72
2021/11/10 09:39:03;;;;;;;4.70;3.40;;;;;;;11.14;53.79;98720.06;6267010;28;20211;-72
2021/11/10 09:42:07;;;;;;;4.63;3.70;;;;;;;11.22;53.24;98727.50;6268421;28;20219;-71
2021/11/10 09:45:13;;;;;;;3.83;3.40;;;;;;;11.48;53.12;98722.16;6267517;28;20659;-72
2021/11/10 09:48:17;;;;;;;5.00;3.23;;;;;;;11.55;52.59;98713.81;6268469;28;20688;-72
2021/11/10 09:51:19;;;;;;;4.67;3.53;;;;;;;11.48;52.70;98724.78;6267569;28;20663;-72
2021/11/10 09:54:21;;;;;;;4.03;3.40;;;;;;;11.76;52.25;98715.91;6266954;28;20695;-72
2021/11/10 09:57:24;;;;;;;4.30;3.20;;;;;;;11.91;51.97;98713.97;6267154;28;20193;-73
2021/11/10 10:00:35;;;;;;;4.77;3.30;;;;;;;12.13;51.91;98708.03;6268775;28;20196;-72
2021/11/10 10:03:39;;;;;;;5.33;3.40;;;;;;;12.32;51.50;98710.22;6268658;28;20173;-73
2021/11/10 10:06:41;;;;;;;4.37;3.27;;;;;;;12.38;50.64;98700.03;6266442;28;20216;-73
2021/11/10 10:09:43;;;;;;;4.10;3.03;;;;;;;12.27;49.84;98707.94;6268532;28;20669;-73
2021/11/10 10:12:51;;;;;;;4.77;3.10;;;;;;;12.41;50.13;98696.34;6266300;28;20224;-74
2021/11/10 10:15:56;;;;;;;3.77;3.10;;;;;;;12.30;49.11;98702.41;6268172;28;20198;-72
2021/11/10 10:19:10;;;;;;;4.40;2.93;;;;;;;12.21;50.36;98692.47;6268021;28;20678;-75
2021/11/10 10:22:17;;;;;;;5.63;3.27;;;;;;;12.23;50.50;98695.84;6250476;28;20290;-72
2021/11/10 10:25:20;;;;;;;5.03;2.80;;;;;;;12.29;50.87;98695.41;6267662;28;20201;-72
2021/11/10 10:28:29;;;;;;;6.23;3.30;;;;;;;11.99;49.99;98703.69;6267054;28;20607;-70
2021/11/10 10:31:32;;;;;;;4.33;3.10;;;;;;;11.86;51.26;98712.63;6267824;28;20754;-73
2021/11/10 10:34:34;;;;;;;4.00;3.47;;;;;;;12.11;51.53;98709.94;6267171;28;20673;-75
2021/11/10 10:37:36;;;;;;;5.17;3.53;;;;;;;12.07;50.89;98700.53;6267579;28;20761;-70
2021/11/10 10:40:42;;;;;;;5.47;3.93;;;;;;;11.71;52.61;98702.09;6267803;28;20749;-71
2021/11/10 10:43:49;;;;;;;4.83;3.60;;;;;;;11.32;52.01;98696.88;6267448;28;20275;-72
2021/11/10 10:46:57;;;;;;;6.73;3.83;;;;;;;11.05;53.17;98696.91;6267389;28;20575;-72
2021/11/10 10:49:59;;;;;;;4.30;3.67;;;;;;;11.42;52.76;98688.22;6267681;28;20644;-72
2021/11/10 10:53:02;;;;;;;5.63;3.37;;;;;;;11.48;52.31;98686.13;6266219;28;20679;-72
2021/11/10 10:56:21;;;;;;;4.93;3.63;;;;;;;11.53;52.91;98700.72;6267809;28;20183;-71
2021/11/10 10:59:27;;;;;;;4.60;3.70;;;;;;;11.61;51.65;98687.81;6265701;28;20715;-71
2021/11/10 11:02:29;;;;;;;4.27;3.23;;;;;;;11.54;51.88;98681.25;6266333;28;20242;-72
2021/11/10 11:05:44;;;;;;;4.63;3.70;;;;;;;11.61;52.05;98668.44;6270298;28;20312;-71
2021/11/10 11:08:47;;;;;;;4.87;3.70;;;;;;;11.66;52.64;98675.13;6271853;28;20212;-72
2021/11/10 11:11:59;;;;;;;5.23;3.37;;;;;;;11.88;51.83;98677.16;6269851;28;20248;-73
2021/11/10 11:15:13;;;;;;;4.77;3.70;;;;;;;11.92;51.41;98675.16;6270278;28;20411;-72
2021/11/10 11:18:21;;;;;;;7.20;4.03;;;;;;;11.81;51.35;98670.59;6271852;28;20824;-71
2021/11/10 11:21:26;;;;;;;4.57;3.90;;;;;;;11.88;51.48;98661.28;6269863;28;20584;-71
2021/11/10 11:24:34;;;;;;;5.70;3.40;;;;;;;11.96;51.45;98655.47;6271907;28;20282;-72
2021/11/10 11:27:37;;;;;;;5.13;3.43;;;;;;;12.22;51.29;98666.84;6269610;28;20711;-71
2021/11/10 11:30:44;;;;;;;6.50;3.83;;;;;;;12.41;50.73;98656.63;6271553;28;20198;-72
2021/11/10 11:33:56;;;;;;;4.20;3.77;;;;;;;12.14;51.01;98662.09;6270771;28;20530;-71
2021/11/10 11:36:58;;;;;;;7.37;4.30;;;;;;;11.77;51.64;98654.13;6271168;28;20564;-71
2021/11/10 11:40:13;;;;;;;5.50;4.53;;;;;;;12.17;51.40;98659.25;6271307;28;20579;-72
2021/11/10 11:43:18;;;;;;;4.67;3.93;;;;;;;12.67;50.16;98652.94;6268824;28;20657;-72
2021/11/10 11:46:20;;;;;;;6.90;5.00;;;;;;;12.59;49.98;98652.66;6269845;28;20613;-70
2021/11/10 11:49:23;;;;;;;4.90;4.40;;;;;;;12.22;50.62;98657.09;6270246;28;20224;-71
2021/11/10 11:52:29;;;;;;;7.17;4.60;;;;;;;12.38;50.68;98662.13;6269692;28;20202;-71
2021/11/10 11:55:37;;;;;;;5.50;4.33;;;;;;;12.26;50.62;98661.25;6270807;28;20701;-72
2021/11/10 11:58:47;;;;;;;6.07;4.80;;;;;;;12.44;51.23;98659.91;6270380;28;20204;-71
2021/11/10 12:01:50;;;;;;;7.07;4.70;;;;;;;12.69;50.65;98658.97;6269621;28;20207;-72
2021/11/10 12:04:52;;;;;;;6.93;4.47;;;;;;;12.56;50.22;98640.50;6269971;28;20747;-71
2021/11/10 12:07:57;;;;;;;6.57;4.40;;;;;;;12.84;50.39;98643.75;6269736;28;20228;-71
2021/11/10 12:11:23;;;;;;;5.63;4.20;;;;;;;12.92;50.26;98639.56;6269719;28;20780;-72
2021/11/10 12:14:28;;;;;;;6.73;4.27;;;;;;;13.20;48.81;98643.66;6269057;28;20564;-72
2021/11/10 12:17:31;;;;;;;5.77;4.67;;;;;;;13.42;47.92;98637.59;6259922;28;20330;-70
2021/11/10 12:20:38;;;;;;;9.27;5.00;;;;;;;13.29;48.20;98648.28;6264029;28;20192;-71
2021/11/10 12:23:52;;;;;;;5.50;4.43;;;;;;;13.41;49.06;98649.16;6268620;28;20580;-72
2021/11/10 12:27:11;;;;;;;5.90;4.07;;;;;;;13.64;48.33;98631.47;6268340;28;20209;-72
2021/11/10 12:30:22;;;;;;;5.90;4.57;;;;;;;14.01;47.54;98624.97;6260897;28;20193;-72
2021/11/10 12:33:33;;;;;;;5.33;4.13;;;;;;;14.29;46.68;98628.06;6256360;28;20192;-71
2021/11/10 12:36:52;;;;;;;5.63;3.83;;;;;;;14.24;46.43;98622.31;6268621;28;20213;-73
2021/11/10 12:40:15;;;;;;;4.93;3.80;;;;;;;14.33;45.60;98621.56;6268519;28;20210;-71
2021/11/10 12:43:20;;;;;;;6.27;4.13;;;;;;;14.02;46.52;98618.69;6260135;28;20201;-70
2021/11/10 12:46:22;;;;;;;5.50;4.10;;;;;;;14.53;45.81;98627.94;6261827;28;20194;-71
2021/11/10 12:49:28;;;;;;;5.20;4.30;;;;;;;15.31;43.76;98619.66;6268903;28;20488;-71
2021/11/10 12:52:43;;;;;;;5.63;4.33;;;;;;;16.27;42.05;98624.66;6269511;28;20749;-70
2021/11/10 12:55:52;;;;;;;6.83;5.03;;;;;;;16.78;40.44;98617.31;6269063;28;20666;-72
2021/11/10 12:59:01;;;;;;;5.20;4.33;;;;;;;17.25;39.60;98620.16;6269329;28;20199;-71
2021/11/10 13:02:16;;;;;;;5.03;4.53;;;;;;;17.03;39.85;98621.28;6269618;28;20212;-70
2021/11/10 13:05:28;;;;;;;8.13;6.13;;;;;;;14.55;44.59;98616.25;6267617;28;20192;-71
2021/11/10 13:08:52;;;;;;;7.67;5.93;;;;;;;12.69;49.47;98624.53;6267841;28;20210;-72
2021/11/10 13:11:57;;;;;;;7.03;5.30;;;;;;;12.15;51.38;98619.66;6268458;28;20234;-69
2021/11/10 13:14:59;;;;;;;5.77;5.23;;;;;;;11.58;53.41;98610.53;6267456;28;20198;-70
2021/11/10 13:18:22;;;;;;;6.10;5.20;;;;;;;11.13;54.76;98617.13;6259322;28;20513;-71
2021/11/10 13:21:24;;;;;;;7.47;6.03;;;;;;;10.84;55.73;98614.66;6255086;28;20330;-70
2021/11/10 13:24:27;;;;;;;6.97;5.50;;;;;;;10.64;56.44;98620.41;6268536;28;20217;-71
2021/11/10 13:27:38;;;;;;;6.30;5.30;;;;;;;10.43;57.34;98621.81;6267902;28;20627;-70
2021/11/10 13:31:00;;;;;;;6.83;6.13;;;;;;;10.06;58.63;98613.56;6268697;28;20222;-70
2021/11/10 13:34:07;;;;;;;6.63;5.80;;;;;;;9.91;58.82;98614.53;6268460;28;20323;-70
2021/11/10 13:37:10;;;;;;;7.47;5.80;;;;;;;9.81;59.31;98603.72;6250480;28;20272;-71
2021/11/10 13:40:20;;;;;;;5.67;5.10;;;;;;;9.86;59.83;98606.91;6268313;28;20666;-72
2021/11/10 13:43:22;;;;;;;7.10;5.23;;;;;;;9.86;60.01;98603.44;6268864;28;20195;-70
2021/11/10 13:46:30;;;;;;;7.20;5.00;;;;;;;9.82;59.67;98607.19;6268319;28;20275;-70
2021/11/10 13:49:40;;;;;;;6.83;5.30;;;;;;;9.81;60.49;98608.97;6258539;28;20273;-71
2021/11/10 13:52:43;;;;;;;6.10;4.90;;;;;;;9.84;59.69;98607.94;6247661;28;20196;-70
2021/11/10 13:55:51;;;;;;;6.90;5.80;;;;;;;9.77;59.77;98610.13;6253747;28;20218;-71
2021/11/10 13:58:53;;;;;;;6.93;5.17;;;;;;;9.76;60.29;98611.06;6268139;28;20230;-71
2021/11/10 14:02:03;;;;;;;6.77;5.47;;;;;;;9.77;60.49;98606.66;6267667;28;20676;-71
2021/11/10 14:05:08;;;;;;;7.37;5.10;;;;;;;9.80;59.69;98601.16;6266740;28;20182;-71
2021/11/10 14:08:10;;;;;;;8.17;5.43;;;;;;;9.63;60.65;98603.06;6266948;28;20241;-71
2021/11/10 14:11:12;;;;;;;6.77;5.73;;;;;;;9.60;60.57;98599.75;6267376;28;20227;-71
2021/11/10 14:14:31;;;;;;;6.83;5.43;;;;;;;9.45;61.47;98609.47;6268045;28;20191;-70
2021/11/10 14:17:58;;;;;;;9.30;5.33;;;;;;;9.56;60.92;98606.19;6246375;28;20220;-70
2021/11/10 14:21:03;;;;;;;9.30;5.50;;;;;;;9.41;61.28;98594.78;6262057;28;20273;-70
2021/11/10 14:24:05;;;;;;;5.80;5.20;;;;;;;9.35;61.35;98607.47;6267420;28;20198;-71
2021/11/10 14:27:07;;;;;;;6.40;5.00;;;;;;;9.25;61.79;98600.16;6266406;28;20214;-70
2021/11/10 14:30:13;;;;;;;5.67;5.03;;;;;;;9.18;62.39;98605.88;6267797;28;20202;-70
2021/11/10 14:33:18;;;;;;;6.23;4.83;;;;;;;9.12;62.07;98606.22;6266985;28;20219;-71
2021/11/10 14:36:20;;;;;;;7.07;4.57;;;;;;;9.10;62.32;98601.03;6267848;28;20206;-71
2021/11/10 14:39:26;;;;;;;6.10;4.50;;;;;;;9.07;62.21;98603.88;6267992;28;20285;-70